createdAt,value
2023-04-06T00:00:58.889Z,101675.59
2023-04-06T00:06:00.739Z,101665.81
2023-04-06T00:11:02.488Z,101664.63
2023-04-06T00:16:06.271Z,101656.41
2023-04-06T00:21:07.941Z,101650.63
2023-04-06T00:26:10.025Z,101649.50
2023-04-06T00:31:11.800Z,101640.84
2023-04-06T00:36:13.530Z,101633.94
2023-04-06T00:41:15.208Z,101629.16
2023-04-06T00:46:16.885Z,101621.63
2023-04-06T00:51:18.795Z,101619.34
2023-04-06T00:56:20.903Z,101614.84
2023-04-06T01:01:26.709Z,101604.59
2023-04-06T01:06:32.132Z,101604.59
2023-04-06T01:11:37.070Z,101603.03
2023-04-06T01:16:43.018Z,101589.91
2023-04-06T01:21:50.371Z,101577.91
2023-04-06T01:27:07.013Z,101573.59
2023-04-06T01:32:39.445Z,101566.09
2023-04-06T01:37:42.447Z,101558.03
2023-04-06T01:42:48.717Z,101548.53
2023-04-06T01:47:58.113Z,101543.31
2023-04-06T01:53:01.975Z,101539.56
2023-04-06T01:58:04.710Z,101537.53
2023-04-06T02:03:12.325Z,101539.88
2023-04-06T02:08:14.734Z,101529.47
2023-04-06T02:13:16.463Z,101519.06
2023-04-06T02:18:23.914Z,101516.78
2023-04-06T02:23:25.697Z,101509.41
2023-04-06T02:28:27.363Z,101504.97
2023-04-06T02:33:28.959Z,101502.81
2023-04-06T02:38:30.886Z,101497.78
2023-04-06T02:43:34.939Z,101490.16
2023-04-06T02:48:46.566Z,101487.97
2023-04-06T02:53:49.481Z,101481.94
2023-04-06T02:58:51.719Z,101477.84
2023-04-06T03:03:54.705Z,101469.50
2023-04-06T03:09:00.840Z,101457.16
2023-04-06T03:14:02.622Z,101459.56
2023-04-06T03:19:04.398Z,101454.94
2023-04-06T03:24:09.460Z,101450.19
2023-04-06T03:29:11.301Z,101447.31
2023-04-06T03:34:13.089Z,101442.75
2023-04-06T03:39:15.936Z,101430.91
2023-04-06T03:44:18.942Z,101434.53
2023-04-06T03:49:20.812Z,101431.78
2023-04-06T03:54:25.963Z,101431.03
2023-04-06T03:59:27.740Z,101425.53
2023-04-06T04:04:29.357Z,101425.25
2023-04-06T04:09:31.041Z,101423.72
2023-04-06T04:14:32.655Z,101418.38
2023-04-06T04:19:34.376Z,101417.94
2023-04-06T04:24:36.009Z,101409.75
2023-04-06T04:29:38.003Z,101415.19
2023-04-06T04:34:43.900Z,101413.88
2023-04-06T04:39:53.991Z,101416.03
2023-04-06T04:44:55.778Z,101413.03
2023-04-06T04:50:08.858Z,101414.19
2023-04-06T04:55:14.723Z,101406.88
2023-04-06T05:00:19.601Z,101402.72
2023-04-06T05:05:21.395Z,101405.84
2023-04-06T05:10:23.387Z,101397.38
2023-04-06T05:15:30.447Z,101405.28
2023-04-06T05:20:39.527Z,101403.84
2023-04-06T05:25:41.756Z,101396.38
2023-04-06T05:30:52.254Z,101398.25
2023-04-06T05:35:54.162Z,101392.88
2023-04-06T05:40:55.885Z,101388.84
2023-04-06T05:46:01.429Z,101402.09
2023-04-06T05:51:07.106Z,101392.31
2023-04-06T05:56:17.778Z,101399.53
2023-04-06T06:01:19.877Z,101391.00
2023-04-06T06:06:22.789Z,101389.44
2023-04-06T06:11:39.754Z,101397.94
2023-04-06T06:16:41.967Z,101398.78
2023-04-06T06:21:46.216Z,101394.34
2023-04-06T06:26:49.819Z,101396.06
2023-04-06T06:31:53.390Z,101399.94
2023-04-06T06:36:56.365Z,101400.69
2023-04-06T06:41:58.248Z,101398.66
2023-04-06T06:47:19.006Z,101390.59
2023-04-06T06:52:20.829Z,101384.81
2023-04-06T06:57:23.467Z,101388.56
2023-04-06T07:02:26.071Z,101377.03
2023-04-06T07:07:27.983Z,101380.72
2023-04-06T07:12:31.014Z,101376.84
2023-04-06T07:17:32.684Z,101375.97
2023-04-06T07:22:35.414Z,101363.97
2023-04-06T07:27:38.078Z,101368.47
2023-04-06T07:32:40.277Z,101363.38
2023-04-06T07:37:43.477Z,101369.44
2023-04-06T07:42:45.239Z,101362.50
2023-04-06T07:47:47.470Z,101364.00
2023-04-06T07:52:49.483Z,101359.25
2023-04-06T07:57:51.841Z,101360.69
2023-04-06T08:02:53.471Z,101357.34
2023-04-06T08:07:55.140Z,101361.50
2023-04-06T08:12:56.742Z,101354.44
2023-04-06T08:17:58.975Z,101344.66
2023-04-06T08:23:00.682Z,101349.25
2023-04-06T08:28:03.248Z,101349.53
2023-04-06T08:33:04.963Z,101353.50
2023-04-06T08:38:07.226Z,101349.47
2023-04-06T08:43:12.492Z,101351.25
2023-04-06T08:48:16.166Z,101352.16
2023-04-06T08:53:18.088Z,101356.94
2023-04-06T08:58:31.155Z,101354.13
2023-04-06T09:03:41.366Z,101347.53
2023-04-06T09:08:43.901Z,101346.28
2023-04-06T09:13:50.366Z,101350.44
2023-04-06T09:18:52.035Z,101344.16
2023-04-06T09:24:01.671Z,101349.34
2023-04-06T09:29:04.490Z,101334.59
2023-04-06T09:34:06.823Z,101332.81
2023-04-06T09:39:08.761Z,101339.78
2023-04-06T09:44:13.425Z,101328.13
2023-04-06T09:49:15.842Z,101318.78
2023-04-06T09:54:21.767Z,101322.16
2023-04-06T09:59:46.385Z,101323.97
2023-04-06T10:04:57.823Z,101332.09
2023-04-06T10:10:01.732Z,101316.66
2023-04-06T10:15:03.425Z,101328.59
2023-04-06T10:20:10.593Z,101322.22
2023-04-06T10:25:12.641Z,101323.09
2023-04-06T10:30:18.226Z,101317.00
2023-04-06T10:35:20.012Z,101315.72
2023-04-06T10:40:26.445Z,101311.88
2023-04-06T10:45:32.422Z,101309.31
2023-04-06T10:50:35.765Z,101289.69
2023-04-06T10:55:41.000Z,101289.22
2023-04-06T11:00:50.850Z,101267.34
2023-04-06T11:05:53.206Z,101266.91
2023-04-06T11:11:16.848Z,101280.13
2023-04-06T11:16:20.874Z,101276.47
2023-04-06T11:21:34.489Z,101259.75
2023-04-06T11:27:02.032Z,101264.72
2023-04-06T11:32:07.251Z,101253.56
2023-04-06T11:37:10.710Z,101252.63
2023-04-06T11:42:12.396Z,101245.34
2023-04-06T11:47:14.210Z,101243.56
2023-04-06T11:52:21.517Z,101238.22
2023-04-06T11:57:26.795Z,101236.25
2023-04-06T12:02:28.651Z,101232.59
2023-04-06T12:07:31.456Z,101233.50
2023-04-06T12:12:33.235Z,101230.22
2023-04-06T12:17:34.927Z,101219.94
2023-04-06T12:22:37.395Z,101221.69
2023-04-06T12:27:39.039Z,101212.91
2023-04-06T12:32:40.884Z,101213.88
2023-04-06T12:37:43.212Z,101215.03
2023-04-06T12:42:46.720Z,101213.69
2023-04-06T12:47:48.436Z,101212.69
2023-04-06T12:52:50.068Z,101212.59
2023-04-06T12:57:51.907Z,101204.47
2023-04-06T13:02:53.699Z,101204.84
2023-04-06T13:07:55.603Z,101194.81
2023-04-06T13:12:57.234Z,101196.94
2023-04-06T13:17:59.006Z,101188.78
2023-04-06T13:23:00.734Z,101193.41
2023-04-06T13:28:02.436Z,101183.94
2023-04-06T13:33:05.721Z,101184.72
2023-04-06T13:38:07.502Z,101175.31
2023-04-06T13:43:09.315Z,101172.75
2023-04-06T13:48:11.111Z,101167.25
2023-04-06T13:53:12.986Z,101171.00
2023-04-06T13:58:14.640Z,101166.44
2023-04-06T14:03:16.522Z,101163.91
2023-04-06T14:08:18.320Z,101156.66
2023-04-06T14:13:20.272Z,101157.53
2023-04-06T14:18:23.503Z,101154.72
2023-04-06T14:23:27.397Z,101151.75
2023-04-06T14:28:29.381Z,101149.78
2023-04-06T14:33:31.656Z,101150.38
2023-04-06T14:38:33.846Z,101130.75
2023-04-06T14:43:35.719Z,101137.34
2023-04-06T14:48:37.807Z,101134.03
2023-04-06T14:53:39.693Z,101129.25
2023-04-06T14:58:41.362Z,101129.03
2023-04-06T15:03:43.190Z,101125.44
2023-04-06T15:08:45.353Z,101125.09
2023-04-06T15:13:47.622Z,101120.25
2023-04-06T15:18:49.558Z,101108.03
2023-04-06T15:23:52.241Z,101099.00
2023-04-06T15:28:54.000Z,101091.66
2023-04-06T15:33:56.222Z,101092.84
2023-04-06T15:38:58.705Z,101095.34
2023-04-06T15:44:00.445Z,101100.97
2023-04-06T15:49:02.125Z,101096.75
2023-04-06T15:54:03.751Z,101094.53
2023-04-06T15:59:08.436Z,101097.19
2023-04-06T16:04:11.610Z,101095.84
2023-04-06T16:09:13.353Z,101100.34
2023-04-06T16:14:15.168Z,101095.34
2023-04-06T16:19:16.866Z,101093.19
2023-04-06T16:24:18.588Z,101091.25
2023-04-06T16:29:20.841Z,101084.38
2023-04-06T16:34:22.538Z,101094.38
2023-04-06T16:39:24.331Z,101090.94
2023-04-06T16:44:29.026Z,101093.50
2023-04-06T16:49:30.726Z,101101.25
2023-04-06T16:54:34.611Z,101095.28
2023-04-06T16:59:36.290Z,101107.50
2023-04-06T17:04:37.882Z,101106.09
2023-04-06T17:09:39.500Z,101111.91
2023-04-06T17:14:41.104Z,101113.47
2023-04-06T17:19:42.907Z,101114.63
2023-04-06T17:24:44.518Z,101120.34
2023-04-06T17:29:46.105Z,101124.28
2023-04-06T17:34:48.106Z,101118.69
2023-04-06T17:39:49.765Z,101115.41
2023-04-06T17:44:53.250Z,101118.69
2023-04-06T17:49:55.081Z,101133.44
2023-04-06T17:54:56.676Z,101136.00
2023-04-06T17:59:58.473Z,101135.03
2023-04-06T18:05:00.642Z,101139.34
2023-04-06T18:10:02.402Z,101134.72
2023-04-06T18:15:04.704Z,101131.28
2023-04-06T18:20:07.111Z,101136.66
2023-04-06T18:25:08.835Z,101140.81
2023-04-06T18:30:13.108Z,101150.09
2023-04-06T18:35:15.002Z,101153.38
2023-04-06T18:40:37.733Z,101164.91
2023-04-06T18:45:39.460Z,101172.28
2023-04-06T18:50:41.198Z,101178.34
2023-04-06T18:55:45.199Z,101174.19
2023-04-06T19:00:46.907Z,101175.28
2023-04-06T19:05:48.740Z,101180.41
2023-04-06T19:10:50.408Z,101179.31
2023-04-06T19:15:52.095Z,101181.19
2023-04-06T19:20:54.116Z,101184.28
2023-04-06T19:25:56.838Z,101194.41
2023-04-06T19:30:59.201Z,101194.81
2023-04-06T19:36:01.058Z,101203.75
2023-04-06T19:41:03.356Z,101225.56
2023-04-06T19:46:05.457Z,101218.03
2023-04-06T19:51:07.193Z,101212.06
2023-04-06T19:56:10.316Z,101225.09
2023-04-06T20:01:11.970Z,101223.19
2023-04-06T20:06:13.961Z,101232.84
2023-04-06T20:11:16.531Z,101230.63
2023-04-06T20:16:18.200Z,101240.03
2023-04-06T20:21:19.925Z,101242.75
2023-04-06T20:26:21.595Z,101249.47
2023-04-06T20:31:27.374Z,101260.63
2023-04-06T20:36:31.603Z,101258.25
2023-04-06T20:41:33.295Z,101262.69
2023-04-06T20:46:34.974Z,101269.25
2023-04-06T20:51:37.056Z,101281.75
2023-04-06T20:56:38.756Z,101287.25
2023-04-06T21:01:40.510Z,101281.56
2023-04-06T21:06:42.200Z,101287.59
2023-04-06T21:11:43.862Z,101295.97
2023-04-06T21:16:46.153Z,101300.13
2023-04-06T21:21:47.903Z,101286.34
2023-04-06T21:26:49.710Z,101289.44
2023-04-06T21:31:51.458Z,101293.25
2023-04-06T21:36:53.220Z,101288.22
2023-04-06T21:41:54.940Z,101294.25
2023-04-06T21:46:56.632Z,101299.91
2023-04-06T21:51:58.988Z,101296.94
2023-04-06T21:57:04.589Z,101305.19
2023-04-06T22:02:06.300Z,101305.53
2023-04-06T22:07:07.988Z,101292.78
2023-04-06T22:12:09.589Z,101305.34
2023-04-06T22:17:11.152Z,101310.13
2023-04-06T22:22:12.826Z,101322.50
2023-04-06T22:27:14.548Z,101316.50
2023-04-06T22:32:16.313Z,101319.56
2023-04-06T22:37:17.967Z,101328.13
2023-04-06T22:42:19.629Z,101341.53
2023-04-06T22:47:21.361Z,101341.53
2023-04-06T22:52:23.111Z,101348.78
2023-04-06T22:57:25.027Z,101353.94
2023-04-06T23:02:26.730Z,101346.03
2023-04-06T23:07:29.017Z,101337.13
2023-04-06T23:12:30.945Z,101349.47
2023-04-06T23:17:32.641Z,101333.34
2023-04-06T23:22:34.354Z,101347.41
2023-04-06T23:27:36.262Z,101353.88
2023-04-06T23:32:37.961Z,101354.97
2023-04-06T23:37:39.595Z,101356.03
2023-04-06T23:42:41.288Z,101350.31
2023-04-06T23:47:43.031Z,101358.34
2023-04-06T23:52:44.837Z,101355.75
2023-04-06T23:57:46.593Z,101358.81
